createdAt,value
2018-08-18T00:01:58.828Z,88.60
2018-08-18T00:04:31.305Z,88.40
2018-08-18T00:06:59.976Z,88.10
2018-08-18T00:09:27.600Z,86.70
2018-08-18T00:11:55.707Z,89.00
2018-08-18T00:14:23.952Z,88.30
2018-08-18T00:16:52.024Z,89.20
2018-08-18T00:19:23.511Z,88.60
2018-08-18T00:21:51.064Z,88.10
2018-08-18T00:24:18.644Z,88.60
2018-08-18T00:26:46.255Z,88.70
2018-08-18T00:29:13.817Z,89.20
2018-08-18T00:31:42.739Z,89.00
2018-08-18T00:34:10.320Z,88.50
2018-08-18T00:36:37.811Z,88.30
2018-08-18T00:39:09.328Z,87.50
2018-08-18T00:41:37.764Z,88.10
2018-08-18T00:44:06.372Z,89.30
2018-08-18T00:46:34.501Z,89.10
2018-08-18T00:49:02.067Z,89.30
2018-08-18T00:51:35.152Z,91.20
2018-08-18T00:54:04.104Z,90.30
2018-08-18T00:56:33.392Z,92.20
2018-08-18T00:59:00.947Z,90.60
2018-08-18T01:01:29.108Z,89.40
2018-08-18T01:03:58.295Z,88.80
2018-08-18T01:06:29.047Z,90.10
2018-08-18T01:08:57.800Z,89.40
2018-08-18T01:11:25.559Z,89.40
2018-08-18T01:13:54.755Z,89.50
2018-08-18T01:16:23.297Z,89.30
2018-08-18T01:18:52.419Z,89.40
2018-08-18T01:21:20.149Z,89.20
2018-08-18T01:23:47.632Z,88.90
2018-08-18T01:26:15.219Z,88.80
2018-08-18T01:28:42.809Z,88.90
2018-08-18T01:31:27.844Z,90.30
2018-08-18T01:33:55.344Z,89.50
2018-08-18T01:36:22.829Z,89.60
2018-08-18T01:38:50.464Z,89.90
2018-08-18T01:41:22.132Z,90.10
2018-08-18T01:44:04.172Z,89.70
2018-08-18T01:46:31.676Z,89.80
2018-08-18T01:49:11.275Z,89.50
2018-08-18T01:51:39.760Z,91.30
2018-08-18T01:54:07.279Z,91.40
2018-08-18T01:56:34.768Z,94.10
2018-08-18T01:59:02.721Z,90.70
2018-08-18T02:01:30.211Z,89.60
2018-08-18T02:03:58.496Z,91.30
2018-08-18T02:06:26.008Z,90.00
2018-08-18T02:08:58.464Z,90.80
2018-08-18T02:11:26.659Z,90.20
2018-08-18T02:13:56.239Z,90.70
2018-08-18T02:16:26.777Z,91.60
2018-08-18T02:18:54.279Z,93.00
2018-08-18T02:21:28.915Z,93.50
2018-08-18T02:23:57.728Z,92.40
2018-08-18T02:26:25.968Z,92.10
2018-08-18T02:28:53.804Z,92.70
2018-08-18T02:31:21.290Z,91.00
2018-08-18T02:33:48.792Z,90.10
2018-08-18T02:36:16.346Z,91.20
2018-08-18T02:38:50.246Z,92.60
2018-08-18T02:41:17.857Z,92.50
2018-08-18T02:43:45.386Z,93.10
2018-08-18T02:46:24.955Z,92.90
2018-08-18T02:48:52.449Z,94.10
2018-08-18T02:51:20.581Z,93.10
2018-08-18T02:53:48.088Z,93.60
2018-08-18T02:56:16.171Z,91.60
2018-08-18T02:58:48.248Z,90.80
2018-08-18T03:01:16.339Z,91.30
2018-08-18T03:03:44.563Z,91.90
2018-08-18T03:06:12.380Z,91.40
2018-08-18T03:08:40.457Z,92.20
2018-08-18T03:11:08.122Z,92.90
2018-08-18T03:13:36.274Z,92.90
2018-08-18T03:16:10.827Z,93.50
2018-08-18T03:18:46.976Z,93.50
2018-08-18T03:21:14.987Z,92.50
2018-08-18T03:23:54.395Z,92.40
2018-08-18T03:26:31.608Z,93.40
2018-08-18T03:28:59.249Z,94.30
2018-08-18T03:31:26.696Z,92.40
2018-08-18T03:33:54.628Z,94.00
2018-08-18T03:36:54.680Z,94.20
2018-08-18T03:39:28.284Z,95.80
2018-08-18T03:41:57.295Z,94.00
2018-08-18T03:44:25.483Z,93.20
2018-08-18T03:46:53.051Z,93.60
2018-08-18T03:49:21.672Z,92.70
2018-08-18T03:51:53.003Z,92.50
2018-08-18T03:54:21.063Z,92.60
2018-08-18T03:56:48.924Z,91.90
2018-08-18T03:59:16.428Z,92.70
2018-08-18T04:01:53.586Z,92.00
2018-08-18T04:04:22.808Z,92.00
2018-08-18T04:06:51.656Z,92.50
2018-08-18T04:09:20.434Z,92.50
2018-08-18T04:11:47.957Z,92.40
2018-08-18T04:14:21.203Z,92.30
2018-08-18T04:16:51.412Z,91.80
2018-08-18T04:19:20.108Z,92.10
2018-08-18T04:21:48.328Z,92.40
2018-08-18T04:24:16.292Z,93.40
2018-08-18T04:26:46.667Z,94.10
2018-08-18T04:29:15.169Z,93.10
2018-08-18T04:31:42.687Z,93.90
2018-08-18T04:34:10.168Z,94.30
2018-08-18T04:36:37.680Z,93.30
2018-08-18T04:39:10.448Z,92.30
2018-08-18T04:41:38.581Z,92.50
2018-08-18T04:44:07.162Z,92.50
2018-08-18T04:46:35.548Z,93.50
2018-08-18T04:49:03.684Z,93.80
2018-08-18T04:51:32.188Z,94.30
2018-08-18T04:53:59.922Z,92.60
2018-08-18T04:56:28.097Z,93.60
2018-08-18T04:58:55.642Z,93.20
2018-08-18T05:01:23.208Z,92.50
2018-08-18T05:04:06.528Z,91.70
2018-08-18T05:06:35.369Z,92.40
2018-08-18T05:09:04.669Z,93.40
2018-08-18T05:11:32.264Z,92.20
2018-08-18T05:14:00.033Z,92.60
2018-08-18T05:16:27.976Z,93.80
2018-08-18T05:18:55.892Z,94.00
2018-08-18T05:21:24.019Z,93.60
2018-08-18T05:23:51.907Z,93.30
2018-08-18T05:26:19.430Z,92.90
2018-08-18T05:28:47.196Z,93.20
2018-08-18T05:31:14.887Z,93.60
2018-08-18T05:33:42.924Z,94.00
2018-08-18T05:36:10.827Z,93.30
2018-08-18T05:38:39.834Z,93.60
2018-08-18T05:41:07.378Z,92.60
2018-08-18T05:43:34.969Z,91.60
2018-08-18T05:46:03.440Z,91.50
2018-08-18T05:48:31.796Z,91.20
2018-08-18T05:51:00.012Z,90.80
2018-08-18T05:53:30.854Z,90.60
2018-08-18T05:55:59.006Z,90.30
2018-08-18T05:58:27.590Z,90.00
2018-08-18T06:01:00.836Z,89.70
2018-08-18T06:03:28.424Z,89.40
2018-08-18T06:05:57.495Z,89.10
2018-08-18T06:08:25.288Z,88.80
2018-08-18T06:10:53.107Z,88.30
2018-08-18T06:13:22.377Z,89.00
2018-08-18T06:16:06.190Z,87.50
2018-08-18T06:18:35.520Z,87.20
2018-08-18T06:21:03.640Z,86.70
2018-08-18T06:23:31.299Z,86.70
2018-08-18T06:25:59.491Z,86.60
2018-08-18T06:28:27.617Z,86.50
2018-08-18T06:30:55.168Z,86.30
2018-08-18T06:33:22.656Z,85.60
2018-08-18T06:35:50.829Z,84.80
2018-08-18T06:38:18.336Z,84.90
2018-08-18T06:40:52.287Z,84.80
2018-08-18T06:43:19.780Z,83.70
2018-08-18T06:45:48.860Z,84.70
2018-08-18T06:48:19.925Z,84.00
2018-08-18T06:50:47.984Z,83.80
2018-08-18T06:53:15.593Z,83.60
2018-08-18T06:55:43.108Z,83.40
2018-08-18T06:58:10.985Z,83.20
2018-08-18T07:00:38.784Z,83.40
2018-08-18T07:03:42.043Z,82.60
2018-08-18T07:06:11.540Z,81.40
2018-08-18T07:08:44.912Z,82.00
2018-08-18T07:11:12.545Z,82.00
2018-08-18T07:13:41.155Z,80.80
2018-08-18T07:16:09.042Z,80.80
2018-08-18T07:18:37.396Z,79.40
2018-08-18T07:21:04.988Z,78.40
2018-08-18T07:23:32.537Z,79.90
2018-08-18T07:26:01.104Z,78.70
2018-08-18T07:28:28.697Z,79.20
2018-08-18T07:30:56.284Z,76.00
2018-08-18T07:33:24.236Z,77.80
2018-08-18T07:35:51.771Z,77.30
2018-08-18T07:38:19.891Z,72.70
2018-08-18T07:40:50.060Z,76.70
2018-08-18T07:43:22.052Z,75.90
2018-08-18T07:45:50.808Z,76.20
2018-08-18T07:48:18.339Z,73.90
2018-08-18T07:50:46.408Z,74.20
2018-08-18T07:53:14.753Z,73.70
2018-08-18T07:55:42.124Z,72.50
2018-08-18T07:58:11.096Z,72.50
2018-08-18T08:00:39.776Z,72.90
2018-08-18T08:03:08.920Z,66.50
2018-08-18T08:05:37.011Z,70.10
2018-08-18T08:08:04.923Z,71.50
2018-08-18T08:10:32.504Z,71.40
2018-08-18T08:13:00.450Z,71.70
2018-08-18T08:15:28.617Z,69.90
2018-08-18T08:17:56.424Z,68.90
2018-08-18T08:20:24.224Z,68.60
2018-08-18T08:22:52.797Z,64.00
2018-08-18T08:25:20.331Z,65.30
2018-08-18T08:27:49.408Z,65.50
2018-08-18T08:30:18.395Z,64.40
2018-08-18T08:32:46.416Z,65.00
2018-08-18T08:35:14.016Z,64.50
2018-08-18T08:37:42.155Z,64.00
2018-08-18T08:40:13.187Z,64.10
2018-08-18T08:42:41.304Z,63.30
2018-08-18T08:45:12.519Z,62.90
2018-08-18T08:47:40.514Z,61.40
2018-08-18T08:50:16.880Z,62.40
2018-08-18T08:52:49.296Z,61.30
2018-08-18T08:55:18.743Z,61.60
2018-08-18T08:57:46.721Z,62.00
2018-08-18T09:00:14.656Z,63.20
2018-08-18T09:02:42.912Z,61.50
2018-08-18T09:05:10.848Z,61.60
2018-08-18T09:07:38.811Z,61.90
2018-08-18T09:10:07.906Z,60.00
2018-08-18T09:12:36.617Z,60.20
2018-08-18T09:15:05.788Z,60.00
2018-08-18T09:17:33.331Z,60.70
2018-08-18T09:20:00.876Z,60.80
2018-08-18T09:22:30.132Z,59.60
2018-08-18T09:25:02.259Z,60.50
2018-08-18T09:27:30.419Z,59.60
2018-08-18T09:29:58.624Z,59.70
2018-08-18T09:32:26.704Z,59.60
2018-08-18T09:34:54.260Z,59.60
2018-08-18T09:37:22.130Z,59.90
2018-08-18T09:39:50.017Z,60.00
2018-08-18T09:42:18.530Z,59.10
2018-08-18T09:44:52.166Z,58.30
2018-08-18T09:47:19.744Z,59.50
2018-08-18T09:49:47.308Z,59.60
2018-08-18T09:52:17.328Z,59.30
2018-08-18T09:54:44.896Z,59.20
2018-08-18T09:57:13.184Z,59.10
2018-08-18T09:59:40.751Z,59.30
2018-08-18T10:02:11.055Z,59.20
2018-08-18T10:04:40.029Z,58.90
2018-08-18T10:07:07.644Z,59.60
2018-08-18T10:09:35.300Z,58.90
2018-08-18T10:12:03.011Z,58.90
2018-08-18T10:14:31.156Z,58.50
2018-08-18T10:16:59.455Z,58.60
2018-08-18T10:19:28.960Z,57.50
2018-08-18T10:21:56.476Z,58.30
2018-08-18T10:24:24.007Z,58.50
2018-08-18T10:26:58.496Z,58.00
2018-08-18T10:29:26.422Z,57.90
2018-08-18T10:31:55.216Z,57.40
2018-08-18T10:34:23.984Z,57.40
2018-08-18T10:36:53.844Z,56.70
2018-08-18T10:39:21.400Z,57.00
2018-08-18T10:42:00.419Z,56.90
2018-08-18T10:44:27.916Z,56.50
2018-08-18T10:47:08.585Z,56.00
2018-08-18T10:49:48.475Z,58.00
2018-08-18T10:52:29.084Z,56.90
2018-08-18T10:54:58.472Z,55.30
2018-08-18T10:57:37.498Z,54.80
2018-08-18T11:00:12.152Z,55.00
2018-08-18T11:02:42.621Z,56.00
2018-08-18T11:05:11.264Z,56.30
2018-08-18T11:07:38.956Z,55.50
2018-08-18T11:10:07.236Z,55.60
2018-08-18T11:12:37.508Z,55.20
2018-08-18T11:15:09.128Z,55.10
2018-08-18T11:17:36.668Z,54.50
2018-08-18T11:20:10.143Z,54.80
2018-08-18T11:23:10.674Z,54.30
2018-08-18T11:25:44.072Z,55.40
2018-08-18T11:28:12.566Z,55.50
2018-08-18T11:30:40.135Z,54.50
2018-08-18T11:33:07.723Z,54.60
2018-08-18T11:35:36.282Z,54.70
2018-08-18T11:38:12.786Z,53.80
2018-08-18T11:40:40.488Z,53.80
2018-08-18T11:43:09.761Z,54.20
2018-08-18T11:45:38.464Z,54.30
2018-08-18T11:48:10.388Z,53.30
2018-08-18T11:50:38.902Z,53.50
2018-08-18T11:53:06.925Z,53.80
2018-08-18T11:55:35.392Z,53.50
2018-08-18T11:58:04.631Z,53.10
2018-08-18T12:00:35.408Z,53.00
2018-08-18T12:03:09.843Z,53.00
2018-08-18T12:05:44.643Z,54.10
2018-08-18T12:08:13.141Z,53.50
2018-08-18T12:10:40.776Z,53.80
2018-08-18T12:13:08.840Z,53.30
2018-08-18T12:15:55.016Z,53.50
2018-08-18T12:18:24.079Z,52.00
2018-08-18T12:20:53.336Z,52.40
2018-08-18T12:23:21.312Z,52.20
2018-08-18T12:25:53.416Z,51.90
2018-08-18T12:28:22.760Z,51.70
2018-08-18T12:30:50.791Z,52.40
2018-08-18T12:33:19.372Z,52.20
2018-08-18T12:35:48.179Z,51.20
2018-08-18T12:38:16.739Z,49.80
2018-08-18T12:40:44.284Z,50.80
2018-08-18T12:43:12.854Z,50.60
2018-08-18T12:45:44.974Z,50.70
2018-08-18T12:48:12.556Z,51.20
2018-08-18T12:50:40.138Z,50.90
2018-08-18T12:53:08.659Z,51.00
2018-08-18T12:55:36.632Z,50.80
2018-08-18T12:58:04.999Z,51.10
2018-08-18T13:00:32.551Z,50.70
2018-08-18T13:03:00.496Z,51.40
2018-08-18T13:05:28.424Z,50.90
2018-08-18T13:07:56.120Z,49.10
2018-08-18T13:10:26.664Z,48.60
2018-08-18T13:12:55.512Z,48.30
2018-08-18T13:15:23.728Z,48.70
2018-08-18T13:17:51.244Z,49.60
2018-08-18T13:20:25.440Z,48.40
2018-08-18T13:22:53.266Z,48.70
2018-08-18T13:25:20.866Z,48.10
2018-08-18T13:27:54.325Z,48.10
2018-08-18T13:30:22.955Z,48.20
2018-08-18T13:32:54.544Z,48.20
2018-08-18T13:35:22.492Z,48.80
2018-08-18T13:37:50.315Z,48.20
2018-08-18T13:40:17.915Z,48.40
2018-08-18T13:42:45.491Z,46.50
2018-08-18T13:45:13.633Z,46.20
2018-08-18T13:47:41.409Z,46.50
2018-08-18T13:50:12.728Z,45.60
2018-08-18T13:52:46.388Z,45.60
2018-08-18T13:55:14.434Z,46.70
2018-08-18T13:57:41.996Z,46.70
2018-08-18T14:00:11.485Z,45.20
2018-08-18T14:02:39.395Z,44.30
2018-08-18T14:05:14.815Z,44.30
2018-08-18T14:07:52.466Z,45.20
2018-08-18T14:10:20.018Z,45.40
2018-08-18T14:12:47.934Z,44.60
2018-08-18T14:15:16.227Z,44.80
2018-08-18T14:17:44.537Z,43.80
2018-08-18T14:20:12.100Z,42.90
2018-08-18T14:22:40.022Z,41.80
2018-08-18T14:25:07.625Z,42.00
2018-08-18T14:27:35.438Z,39.50
2018-08-18T14:30:03.833Z,40.90
2018-08-18T14:32:32.685Z,40.30
2018-08-18T14:35:06.553Z,39.80
2018-08-18T14:37:37.948Z,39.50
2018-08-18T14:40:08.493Z,38.70
2018-08-18T14:42:35.996Z,36.90
2018-08-18T14:45:03.593Z,38.80
2018-08-18T14:47:31.136Z,37.50
2018-08-18T14:50:12.608Z,37.20
2018-08-18T14:52:41.644Z,37.40
2018-08-18T14:55:09.148Z,36.60
2018-08-18T14:57:40.769Z,36.20
2018-08-18T15:00:08.384Z,36.70
2018-08-18T15:02:35.888Z,37.30
2018-08-18T15:05:04.864Z,36.50
2018-08-18T15:07:35.259Z,36.10
2018-08-18T15:10:02.828Z,35.90
2018-08-18T15:12:31.104Z,37.00
2018-08-18T15:14:59.907Z,36.90
2018-08-18T15:17:28.032Z,37.90
2018-08-18T15:19:56.089Z,36.30
2018-08-18T15:22:23.623Z,35.90
2018-08-18T15:24:51.598Z,35.20
2018-08-18T15:27:19.105Z,35.60
2018-08-18T15:29:46.667Z,35.90
2018-08-18T15:32:14.460Z,35.30
2018-08-18T15:34:43.008Z,35.40
2018-08-18T15:37:10.867Z,35.80
2018-08-18T15:39:38.884Z,36.20
2018-08-18T15:42:06.391Z,35.40
2018-08-18T15:44:41.768Z,35.00
2018-08-18T15:47:10.038Z,34.70
2018-08-18T15:49:37.707Z,35.00
2018-08-18T15:52:05.683Z,35.40
2018-08-18T15:54:33.186Z,35.10
2018-08-18T15:57:01.095Z,34.40
2018-08-18T15:59:28.602Z,32.90
2018-08-18T16:01:56.090Z,33.80
2018-08-18T16:04:24.684Z,33.50
2018-08-18T16:06:52.686Z,33.80
2018-08-18T16:09:20.534Z,33.70
2018-08-18T16:11:48.417Z,32.80
2018-08-18T16:14:16.268Z,32.10
2018-08-18T16:16:56.304Z,32.50
2018-08-18T16:19:24.391Z,33.20
2018-08-18T16:21:53.107Z,32.50
2018-08-18T16:24:34.015Z,32.30
2018-08-18T16:27:04.516Z,32.30
2018-08-18T16:29:32.511Z,32.90
2018-08-18T16:32:27.127Z,33.10
2018-08-18T16:35:01.050Z,33.30
2018-08-18T16:37:28.831Z,33.30
2018-08-18T16:39:57.284Z,33.80
2018-08-18T16:42:26.037Z,35.30
2018-08-18T16:44:53.648Z,36.60
2018-08-18T16:47:21.538Z,37.10
2018-08-18T16:49:49.627Z,38.40
2018-08-18T16:52:17.584Z,39.90
2018-08-18T16:54:45.103Z,41.20
2018-08-18T16:57:13.028Z,40.90
2018-08-18T16:59:40.524Z,42.60
2018-08-18T17:02:18.496Z,43.40
2018-08-18T17:04:47.588Z,42.80
2018-08-18T17:07:23.457Z,43.70
2018-08-18T17:09:51.628Z,44.90
2018-08-18T17:12:22.424Z,44.60
2018-08-18T17:14:50.289Z,45.60
2018-08-18T17:17:21.507Z,45.10
2018-08-18T17:19:49.683Z,45.40
2018-08-18T17:22:17.219Z,45.40
2018-08-18T17:24:45.213Z,46.60
2018-08-18T17:27:13.104Z,46.50
2018-08-18T17:29:42.215Z,46.70
2018-08-18T17:32:10.248Z,46.30
2018-08-18T17:34:37.969Z,46.90
2018-08-18T17:37:06.536Z,47.80
2018-08-18T17:39:34.111Z,48.30
2018-08-18T17:42:01.671Z,49.40
2018-08-18T17:44:30.375Z,49.00
2018-08-18T17:46:58.136Z,49.80
2018-08-18T17:49:26.844Z,50.40
2018-08-18T17:51:59.417Z,51.00
2018-08-18T17:54:26.952Z,52.20
2018-08-18T17:56:54.897Z,53.20
2018-08-18T17:59:23.478Z,53.10
2018-08-18T18:02:01.208Z,52.80
2018-08-18T18:04:30.387Z,52.70
2018-08-18T18:06:59.928Z,52.90
2018-08-18T18:09:30.667Z,56.50
2018-08-18T18:12:04.479Z,54.40
2018-08-18T18:14:33.379Z,54.40
2018-08-18T18:17:00.971Z,55.50
2018-08-18T18:19:28.812Z,54.50
2018-08-18T18:21:56.693Z,55.20
2018-08-18T18:24:35.581Z,55.70
2018-08-18T18:27:03.565Z,56.60
2018-08-18T18:29:31.087Z,56.40
2018-08-18T18:31:59.088Z,58.00
2018-08-18T18:34:26.715Z,57.40
2018-08-18T18:36:54.369Z,62.60
2018-08-18T18:39:21.895Z,62.60
2018-08-18T18:41:49.399Z,60.30
2018-08-18T18:44:17.579Z,60.80
2018-08-18T18:46:45.201Z,60.50
2018-08-18T18:49:26.651Z,60.60
2018-08-18T18:51:55.008Z,60.90
2018-08-18T18:54:22.648Z,62.40
2018-08-18T18:56:50.607Z,62.20
2018-08-18T18:59:18.491Z,64.70
2018-08-18T19:01:47.139Z,65.50
2018-08-18T19:04:15.515Z,63.50
2018-08-18T19:06:59.544Z,66.80
2018-08-18T19:09:27.192Z,66.80
2018-08-18T19:11:55.107Z,64.70
2018-08-18T19:14:23.261Z,64.40
2018-08-18T19:16:51.332Z,65.00
2018-08-18T19:19:20.168Z,64.80
2018-08-18T19:21:47.792Z,65.20
2018-08-18T19:24:24.467Z,65.70
2018-08-18T19:26:54.731Z,68.20
2018-08-18T19:29:25.295Z,71.10
2018-08-18T19:31:55.264Z,69.90
2018-08-18T19:34:23.071Z,71.00
2018-08-18T19:36:59.496Z,69.20
2018-08-18T19:39:28.224Z,69.10
2018-08-18T19:42:05.217Z,69.70
2018-08-18T19:44:35.815Z,68.60
2018-08-18T19:47:03.366Z,68.30
2018-08-18T19:49:42.131Z,69.10
2018-08-18T19:52:15.352Z,69.80
2018-08-18T19:54:48.232Z,69.00
2018-08-18T19:57:22.848Z,69.50
2018-08-18T19:59:51.603Z,71.30
2018-08-18T20:02:20.340Z,70.70
2018-08-18T20:04:49.144Z,73.80
2018-08-18T20:07:17.179Z,75.30
2018-08-18T20:09:44.695Z,80.10
2018-08-18T20:12:12.575Z,74.50
2018-08-18T20:14:41.112Z,74.20
2018-08-18T20:17:09.191Z,73.20
2018-08-18T20:19:37.155Z,73.00
2018-08-18T20:22:05.576Z,72.90
2018-08-18T20:24:33.311Z,73.30
2018-08-18T20:27:00.912Z,73.50
2018-08-18T20:29:29.719Z,73.10
2018-08-18T20:32:03.252Z,79.00
2018-08-18T20:34:31.125Z,74.90
2018-08-18T20:36:58.708Z,74.20
2018-08-18T20:39:28.036Z,73.80
2018-08-18T20:41:55.980Z,75.10
2018-08-18T20:44:25.285Z,77.10
2018-08-18T20:46:53.320Z,76.90
2018-08-18T20:49:21.548Z,75.10
2018-08-18T20:51:49.672Z,80.90
2018-08-18T20:54:17.199Z,79.50
2018-08-18T20:56:45.107Z,79.30
2018-08-18T20:59:12.985Z,80.90
2018-08-18T21:01:41.169Z,76.70
2018-08-18T21:04:09.108Z,75.90
2018-08-18T21:06:37.650Z,78.40
2018-08-18T21:09:21.124Z,79.90
2018-08-18T21:11:48.984Z,77.50
2018-08-18T21:14:16.913Z,79.80
2018-08-18T21:16:44.420Z,78.70
2018-08-18T21:19:13.523Z,79.80
2018-08-18T21:21:41.102Z,77.70
2018-08-18T21:24:08.589Z,80.40
2018-08-18T21:26:36.192Z,78.30
2018-08-18T21:29:03.751Z,80.30
2018-08-18T21:31:33.803Z,78.30
2018-08-18T21:34:02.451Z,78.50
2018-08-18T21:36:30.624Z,77.70
2018-08-18T21:39:00.080Z,78.20
2018-08-18T21:41:27.952Z,82.20
2018-08-18T21:43:55.848Z,84.20
2018-08-18T21:46:23.359Z,80.70
2018-08-18T21:48:52.074Z,81.50
2018-08-18T21:51:24.347Z,81.10
2018-08-18T21:53:52.499Z,80.90
2018-08-18T21:56:20.441Z,80.90
2018-08-18T21:58:48.496Z,80.20
2018-08-18T22:01:16.819Z,80.80
2018-08-18T22:03:45.404Z,81.10
2018-08-18T22:06:13.544Z,80.90
2018-08-18T22:08:41.385Z,81.40
2018-08-18T22:11:20.153Z,80.40
2018-08-18T22:13:53.595Z,80.40
2018-08-18T22:16:21.849Z,80.40
2018-08-18T22:18:55.936Z,80.30
2018-08-18T22:21:27.506Z,81.40
2018-08-18T22:23:56.544Z,80.90
2018-08-18T22:26:24.420Z,80.50
2018-08-18T22:28:58.040Z,81.00
2018-08-18T22:31:27.580Z,80.80
2018-08-18T22:33:57.200Z,82.20
2018-08-18T22:36:26.209Z,82.40
2018-08-18T22:38:53.996Z,82.90
2018-08-18T22:41:21.859Z,83.50
2018-08-18T22:43:49.820Z,81.30
2018-08-18T22:46:17.492Z,80.50
2018-08-18T22:48:45.043Z,81.00
2018-08-18T22:51:12.873Z,81.70
2018-08-18T22:53:44.208Z,81.60
2018-08-18T22:56:12.136Z,83.70
2018-08-18T22:58:45.220Z,86.30
2018-08-18T23:01:12.774Z,82.30
2018-08-18T23:03:40.640Z,82.90
2018-08-18T23:06:08.661Z,82.80
2018-08-18T23:08:36.385Z,83.00
2018-08-18T23:11:04.388Z,82.50
2018-08-18T23:13:32.224Z,83.50
2018-08-18T23:15:59.740Z,84.70
2018-08-18T23:18:27.240Z,84.00
2018-08-18T23:20:54.752Z,83.60
2018-08-18T23:23:22.283Z,86.20
2018-08-18T23:25:50.892Z,86.90
2018-08-18T23:28:18.403Z,87.70
2018-08-18T23:30:46.792Z,85.50
2018-08-18T23:33:14.771Z,85.30
2018-08-18T23:35:42.283Z,87.20
2018-08-18T23:38:09.784Z,87.70
2018-08-18T23:40:37.360Z,86.40
2018-08-18T23:43:04.920Z,87.70
2018-08-18T23:45:39.814Z,85.60
2018-08-18T23:48:10.931Z,85.80
2018-08-18T23:50:39.467Z,85.10
2018-08-18T23:53:11.848Z,85.80
2018-08-18T23:55:50.403Z,88.40
2018-08-18T23:58:20.881Z,88.90
